Time;durP1;ratioP1;P1;durP2;ratioP2;P2;SDS_P1;SDS_P2;PMS_P1;PMS_P2;Temp;Humidity;BMP_temperature;BMP_pressure;BME280_temperature;BME280_humidity;BME280_pressure;Samples;Min_cycle;Max_cycle;Signal;HPM_P1;HPM_P2
2023/05/17 00:01:41;;;;;;;11.60;3.53;;;6.80;99.90;;;;;;4997074;28;20023;-90
2023/05/17 00:04:07;;;;;;;12.40;3.70;;;6.80;99.90;;;;;;4967690;28;20394;-90
2023/05/17 00:06:33;;;;;;;14.73;3.83;;;6.80;99.90;;;;;;4990928;28;20022;-90
2023/05/17 00:08:59;;;;;;;19.52;3.45;;;6.90;99.90;;;;;;4980051;28;20030;-90
2023/05/17 00:11:25;;;;;;;19.17;5.22;;;6.90;99.90;;;;;;4994036;28;20058;-90
2023/05/17 00:13:50;;;;;;;17.10;3.88;;;6.90;99.90;;;;;;5005532;28;20030;-90
2023/05/17 00:16:16;;;;;;;13.93;3.67;;;6.90;99.90;;;;;;4981830;28;20065;-90
2023/05/17 00:18:41;;;;;;;12.60;3.97;;;6.90;99.90;;;;;;4985747;28;20026;-90
2023/05/17 00:21:07;;;;;;;15.57;4.00;;;6.90;99.90;;;;;;4989892;28;20037;-91
2023/05/17 00:23:33;;;;;;;15.77;4.03;;;6.90;99.90;;;;;;5005212;28;20030;-91
2023/05/17 00:25:58;;;;;;;15.32;4.00;;;6.90;99.90;;;;;;4976144;28;20034;-90
2023/05/17 00:28:24;;;;;;;12.02;3.65;;;6.90;99.90;;;;;;4995671;28;20401;-90
2023/05/17 00:30:49;;;;;;;14.98;4.05;;;6.90;99.90;;;;;;4982565;28;20556;-90
2023/05/17 00:33:15;;;;;;;17.10;4.55;;;6.80;99.90;;;;;;4985450;28;20919;-90
2023/05/17 00:35:40;;;;;;;17.23;5.22;;;6.80;99.90;;;;;;4978106;28;20102;-90
2023/05/17 00:38:06;;;;;;;15.48;4.53;;;6.70;99.90;;;;;;4977086;28;20065;-90
2023/05/17 00:40:31;;;;;;;15.48;4.57;;;6.70;99.90;;;;;;5000362;28;20062;-90
2023/05/17 00:42:57;;;;;;;18.95;4.75;;;6.70;99.90;;;;;;4989831;28;20805;-91
2023/05/17 00:45:23;;;;;;;14.73;4.50;;;6.70;99.90;;;;;;4984170;28;20032;-90
2023/05/17 00:47:48;;;;;;;19.13;5.28;;;6.60;99.90;;;;;;4989282;28;20032;-90
2023/05/17 00:50:14;;;;;;;15.63;6.20;;;6.60;99.90;;;;;;4982727;28;20050;-90
2023/05/17 00:52:39;;;;;;;20.23;4.88;;;6.60;99.90;;;;;;4992536;28;20033;-90
2023/05/17 00:55:05;;;;;;;20.27;6.38;;;6.70;99.90;;;;;;4992372;28;20054;-91
2023/05/17 00:57:31;;;;;;;21.52;6.20;;;6.70;99.90;;;;;;4993666;28;20483;-91
2023/05/17 00:59:57;;;;;;;19.05;5.40;;;6.70;99.90;;;;;;4978533;28;20172;-90
2023/05/17 01:02:23;;;;;;;18.98;6.35;;;6.80;99.90;;;;;;4998395;28;20109;-90
2023/05/17 01:04:49;;;;;;;11.75;5.20;;;6.80;99.90;;;;;;4982951;28;20034;-90
2023/05/17 01:07:16;;;;;;;15.55;5.90;;;6.80;99.90;;;;;;4991101;28;20025;-91
2023/05/17 01:09:42;;;;;;;19.75;5.38;;;6.80;99.90;;;;;;4982839;28;20049;-91
2023/05/17 01:12:33;;;;;;;21.80;5.43;;;6.80;99.90;;;;;;4994337;28;20097;-91
2023/05/17 01:15:14;;;;;;;20.85;6.22;;;6.80;99.90;;;;;;4984012;28;20054;-90
2023/05/17 01:17:39;;;;;;;18.45;6.07;;;6.90;99.90;;;;;;4975870;28;20047;-90
2023/05/17 01:20:27;;;;;;;19.92;6.18;;;6.90;99.90;;;;;;4992830;28;20029;-91
2023/05/17 01:23:12;;;;;;;26.42;6.82;;;6.90;99.90;;;;;;4992661;28;20105;-90
2023/05/17 01:25:53;;;;;;;21.50;6.25;;;6.90;99.90;;;;;;4996772;28;20053;-91
2023/05/17 01:28:21;;;;;;;21.48;6.57;;;6.90;99.90;;;;;;4988917;28;20026;-91
2023/05/17 01:30:50;;;;;;;20.67;6.50;;;6.90;99.90;;;;;;4977350;28;20069;-91
2023/05/17 01:33:18;;;;;;;16.15;5.82;;;7.00;99.90;;;;;;4982348;28;20045;-91
2023/05/17 01:35:44;;;;;;;17.02;5.70;;;6.90;99.90;;;;;;4979047;28;20092;-91
2023/05/17 01:38:09;;;;;;;20.15;6.75;;;7.00;99.90;;;;;;4989955;28;20026;-90
2023/05/17 01:40:41;;;;;;;18.63;6.18;;;7.00;99.90;;;;;;4990190;28;20102;-90
2023/05/17 01:43:21;;;;;;;23.23;6.00;;;6.90;99.90;;;;;;4997598;28;20045;-91
2023/05/17 01:45:58;;;;;;;20.88;6.20;;;7.00;99.90;;;;;;4980196;28;20045;-91
2023/05/17 01:48:30;;;;;;;23.17;6.30;;;7.00;99.90;;;;;;4996546;28;20038;-91
2023/05/17 01:50:57;;;;;;;30.02;6.75;;;7.00;99.90;;;;;;4981897;28;20092;-91
2023/05/17 01:53:36;;;;;;;21.83;5.90;;;7.00;99.90;;;;;;4994494;28;20034;-91
2023/05/17 01:56:06;;;;;;;18.88;6.53;;;7.00;99.90;;;;;;4963811;28;20037;-91
2023/05/17 01:58:39;;;;;;;30.02;5.93;;;7.10;99.90;;;;;;4973941;28;20395;-91
2023/05/17 02:01:05;;;;;;;30.38;7.03;;;7.10;99.90;;;;;;4999774;28;20022;-90
2023/05/17 02:03:31;;;;;;;19.00;5.93;;;7.20;99.90;;;;;;4983130;28;20497;-91
2023/05/17 02:05:57;;;;;;;31.35;6.93;;;7.20;99.90;;;;;;4999223;28;20030;-90
2023/05/17 02:08:22;;;;;;;21.35;6.05;;;7.30;99.90;;;;;;4994897;28;20434;-91
2023/05/17 02:10:48;;;;;;;19.48;6.38;;;7.40;99.90;;;;;;4979213;28;20039;-91
2023/05/17 02:13:13;;;;;;;26.58;6.72;;;7.40;99.90;;;;;;4982368;28;20019;-91
2023/05/17 02:15:38;;;;;;;27.30;6.88;;;7.50;99.90;;;;;;4982616;28;20027;-90
2023/05/17 02:18:04;;;;;;;19.50;6.72;;;7.60;99.90;;;;;;4977066;28;20387;-91
2023/05/17 02:20:30;;;;;;;23.30;7.32;;;7.60;99.90;;;;;;4985119;28;20025;-90
2023/05/17 02:22:55;;;;;;;23.13;6.25;;;7.70;99.90;;;;;;4979704;28;20046;-90
2023/05/17 02:25:21;;;;;;;26.00;6.82;;;7.70;99.90;;;;;;4984621;28;20033;-90
2023/05/17 02:27:46;;;;;;;20.67;6.63;;;7.80;99.90;;;;;;4986054;28;20022;-90
2023/05/17 02:30:13;;;;;;;26.25;7.32;;;7.80;99.90;;;;;;4975774;28;20170;-90
2023/05/17 02:32:38;;;;;;;23.52;6.13;;;7.90;99.90;;;;;;4981233;28;20106;-91
2023/05/17 02:35:04;;;;;;;19.13;6.80;;;7.90;99.90;;;;;;4976600;28;20027;-91
2023/05/17 02:37:30;;;;;;;27.38;7.82;;;7.90;99.90;;;;;;4981879;28;20439;-91
2023/05/17 02:39:55;;;;;;;26.92;6.88;;;8.00;99.90;;;;;;4981595;28;20042;-90
2023/05/17 02:42:21;;;;;;;19.38;6.40;;;8.00;99.90;;;;;;4985425;28;20036;-90
2023/05/17 02:44:51;;;;;;;25.92;6.93;;;8.00;99.90;;;;;;4987911;28;20487;-90
2023/05/17 02:47:17;;;;;;;23.75;6.72;;;8.00;99.90;;;;;;4979727;28;20065;-90
2023/05/17 02:49:43;;;;;;;23.23;6.65;;;8.00;99.90;;;;;;4984346;28;20562;-91
2023/05/17 02:52:09;;;;;;;17.85;6.50;;;8.10;99.90;;;;;;4977689;28;20121;-90
2023/05/17 02:54:34;;;;;;;18.67;6.97;;;8.10;99.90;;;;;;4976349;28;20038;-90
2023/05/17 02:57:00;;;;;;;21.15;7.20;;;8.10;99.90;;;;;;4977762;28;20483;-91
2023/05/17 02:59:25;;;;;;;22.42;7.10;;;8.20;99.90;;;;;;4984151;28;20036;-91
2023/05/17 03:01:51;;;;;;;28.10;7.10;;;8.20;99.90;;;;;;4991297;28;20026;-90
2023/05/17 03:04:18;;;;;;;26.48;7.32;;;8.20;99.90;;;;;;4978420;28;20092;-91
2023/05/17 03:06:44;;;;;;;23.20;7.30;;;8.20;99.90;;;;;;4990630;28;20422;-90
2023/05/17 03:09:10;;;;;;;19.13;6.22;;;8.20;99.90;;;;;;4991850;28;20091;-91
2023/05/17 03:11:35;;;;;;;29.30;7.25;;;8.30;99.90;;;;;;4980413;28;20426;-90
2023/05/17 03:14:01;;;;;;;25.10;6.78;;;8.30;99.90;;;;;;4988785;28;20030;-91
2023/05/17 03:16:26;;;;;;;23.27;7.20;;;8.30;99.90;;;;;;4976433;28;20026;-91
2023/05/17 03:18:52;;;;;;;22.77;7.22;;;8.40;99.90;;;;;;4976268;28;20486;-90
2023/05/17 03:21:17;;;;;;;22.17;7.70;;;8.40;99.90;;;;;;4976407;28;20474;-91
2023/05/17 03:23:43;;;;;;;27.65;7.65;;;8.30;99.90;;;;;;4973477;28;20066;-90
2023/05/17 03:26:08;;;;;;;27.42;7.43;;;8.30;99.90;;;;;;4978406;28;20121;-91
2023/05/17 03:28:34;;;;;;;19.25;7.25;;;8.30;99.90;;;;;;4991835;28;20022;-91
2023/05/17 03:31:00;;;;;;;19.83;7.57;;;8.30;99.90;;;;;;4977272;28;20058;-91
2023/05/17 03:33:25;;;;;;;23.95;7.47;;;8.20;99.90;;;;;;4975906;28;20123;-90
2023/05/17 03:35:51;;;;;;;26.55;7.82;;;8.20;99.90;;;;;;4978671;28;20023;-90
2023/05/17 03:38:16;;;;;;;18.40;7.22;;;8.20;99.90;;;;;;4990537;28;20111;-91
2023/05/17 03:40:42;;;;;;;19.08;7.05;;;8.20;99.90;;;;;;4977857;28;20026;-90
2023/05/17 03:43:07;;;;;;;21.45;7.72;;;8.20;99.90;;;;;;4976206;28;20033;-91
2023/05/17 03:45:33;;;;;;;19.13;7.47;;;8.30;99.90;;;;;;4984939;28;20497;-90
2023/05/17 03:47:59;;;;;;;21.45;7.40;;;8.40;99.90;;;;;;4983989;28;20037;-90
2023/05/17 03:50:24;;;;;;;19.48;7.40;;;8.40;99.90;;;;;;4981422;28;20129;-90
2023/05/17 03:52:50;;;;;;;23.17;7.60;;;8.40;99.90;;;;;;4977247;28;20483;-90
2023/05/17 03:55:15;;;;;;;27.08;8.48;;;8.50;99.90;;;;;;4998902;28;20046;-91
2023/05/17 03:57:41;;;;;;;21.23;7.43;;;8.50;99.90;;;;;;4976240;28;20084;-91
2023/05/17 04:00:09;;;;;;;25.52;7.63;;;8.50;99.90;;;;;;4975848;28;20030;-92
2023/05/17 04:02:35;;;;;;;21.20;7.60;;;8.50;99.90;;;;;;4999390;28;20112;-90
2023/05/17 04:05:00;;;;;;;23.23;6.95;;;8.60;99.90;;;;;;4982766;28;20073;-91
2023/05/17 04:07:26;;;;;;;31.35;8.18;;;8.60;99.90;;;;;;4975575;28;20029;-90
2023/05/17 04:09:52;;;;;;;19.00;7.07;;;8.60;99.90;;;;;;4978705;28;20038;-91
2023/05/17 04:12:18;;;;;;;20.75;7.63;;;8.70;99.90;;;;;;4966857;28;20034;-91
2023/05/17 04:14:43;;;;;;;29.77;7.85;;;8.70;99.90;;;;;;4973040;28;20077;-91
2023/05/17 04:17:09;;;;;;;21.77;7.90;;;8.80;99.90;;;;;;4975185;28;20026;-91
2023/05/17 04:19:34;;;;;;;26.85;8.25;;;8.80;99.90;;;;;;4984099;28;20027;-91
2023/05/17 04:22:00;;;;;;;20.98;8.15;;;8.80;99.90;;;;;;4981861;28;20030;-92
2023/05/17 04:24:25;;;;;;;25.75;7.80;;;8.90;99.90;;;;;;4977694;28;20121;-91
2023/05/17 04:26:51;;;;;;;26.38;7.97;;;8.90;99.90;;;;;;4975446;28;20532;-91
2023/05/17 04:29:16;;;;;;;23.80;7.90;;;8.90;99.90;;;;;;4973274;28;20463;-92
2023/05/17 04:31:42;;;;;;;22.20;8.15;;;8.90;99.90;;;;;;4973128;28;20085;-91
2023/05/17 04:34:08;;;;;;;23.60;7.70;;;8.90;99.90;;;;;;4983271;28;20076;-91
2023/05/17 04:36:34;;;;;;;24.10;7.40;;;9.00;99.90;;;;;;4978983;28;20042;-90
2023/05/17 04:38:59;;;;;;;21.20;8.70;;;9.00;99.90;;;;;;4984544;28;20522;-90
2023/05/17 04:41:25;;;;;;;18.33;7.25;;;9.00;99.90;;;;;;4999938;28;20034;-91
2023/05/17 04:43:50;;;;;;;24.33;7.97;;;9.00;99.90;;;;;;4972381;28;20062;-90
2023/05/17 04:46:16;;;;;;;19.90;8.05;;;9.10;99.90;;;;;;4969062;28;20030;-91
2023/05/17 04:48:41;;;;;;;33.25;9.38;;;9.10;99.90;;;;;;4965108;28;20054;-89
2023/05/17 04:51:07;;;;;;;21.95;8.88;;;9.10;99.90;;;;;;4975054;28;20121;-89
2023/05/17 04:53:32;;;;;;;24.92;7.32;;;9.10;99.90;;;;;;4977434;28;20057;-89
2023/05/17 04:55:58;;;;;;;26.42;8.25;;;9.10;99.90;;;;;;4996855;28;20364;-89
2023/05/17 04:58:24;;;;;;;19.25;6.88;;;9.10;99.90;;;;;;4973886;28;20026;-89
2023/05/17 05:00:51;;;;;;;23.85;7.72;;;9.10;99.90;;;;;;4968877;28;20031;-89
2023/05/17 05:03:17;;;;;;;25.50;7.50;;;9.10;99.90;;;;;;4972458;28;20058;-89
2023/05/17 05:05:43;;;;;;;18.77;7.07;;;9.20;99.90;;;;;;4993282;28;20053;-89
2023/05/17 05:08:08;;;;;;;26.48;8.40;;;9.20;99.90;;;;;;4974316;28;20030;-89
2023/05/17 05:10:34;;;;;;;21.40;8.07;;;9.20;99.90;;;;;;4984783;28;20506;-90
2023/05/17 05:13:00;;;;;;;19.65;7.32;;;9.20;99.90;;;;;;4979346;28;20445;-89
2023/05/17 05:15:25;;;;;;;26.15;7.45;;;9.30;99.90;;;;;;4990675;28;20463;-89
2023/05/17 05:17:51;;;;;;;20.92;8.52;;;9.40;99.90;;;;;;4969800;28;20033;-89
2023/05/17 05:20:17;;;;;;;16.85;7.22;;;9.60;99.90;;;;;;4974056;28;20030;-89
2023/05/17 05:22:42;;;;;;;14.93;5.80;;;9.90;99.90;;;;;;4978981;28;20022;-90
2023/05/17 05:25:08;;;;;;;20.90;6.30;;;10.20;99.90;;;;;;4982537;28;20030;-90
2023/05/17 05:27:34;;;;;;;15.75;5.18;;;10.50;99.90;;;;;;4995485;28;20044;-90
2023/05/17 05:30:00;;;;;;;14.07;4.45;;;10.70;99.90;;;;;;4971216;28;20129;-90
2023/05/17 05:32:26;;;;;;;13.38;4.10;;;11.00;99.90;;;;;;4977631;28;20103;-89
2023/05/17 05:34:51;;;;;;;16.75;4.75;;;11.20;99.90;;;;;;4980199;28;20513;-90
2023/05/17 05:37:18;;;;;;;15.35;4.20;;;11.40;99.90;;;;;;4990735;28;20061;-90
2023/05/17 05:39:44;;;;;;;19.08;4.78;;;11.50;99.90;;;;;;4973385;28;20491;-91
2023/05/17 05:42:10;;;;;;;19.85;4.97;;;11.40;99.90;;;;;;4977171;28;20073;-90
2023/05/17 05:44:36;;;;;;;29.17;4.65;;;11.50;99.90;;;;;;4975774;28;20042;-92
2023/05/17 05:47:01;;;;;;;18.10;4.32;;;11.40;99.90;;;;;;4979146;28;20113;-91
2023/05/17 05:49:27;;;;;;;20.83;4.10;;;11.40;99.90;;;;;;4978928;28;20042;-91
2023/05/17 05:51:52;;;;;;;16.60;3.88;;;11.40;99.90;;;;;;4978588;28;20022;-91
2023/05/17 05:54:18;;;;;;;18.65;5.45;;;11.30;99.90;;;;;;4979750;28;20055;-91
2023/05/17 05:56:44;;;;;;;17.95;4.72;;;11.20;99.90;;;;;;4979554;28;20478;-91
2023/05/17 05:59:10;;;;;;;16.58;3.85;;;11.10;99.90;;;;;;4976404;28;20125;-89
2023/05/17 06:01:36;;;;;;;20.52;3.95;;;11.00;99.90;;;;;;4976922;28;20031;-90
2023/05/17 06:04:01;;;;;;;16.38;4.30;;;10.80;99.90;;;;;;5002853;28;20034;-90
2023/05/17 06:06:27;;;;;;;20.33;3.97;;;10.80;99.90;;;;;;4978990;28;20034;-91
2023/05/17 06:08:53;;;;;;;22.13;4.15;;;10.80;99.90;;;;;;4972298;28;20482;-90
2023/05/17 06:11:19;;;;;;;18.85;3.10;;;10.90;99.90;;;;;;4983930;28;20029;-90
2023/05/17 06:13:45;;;;;;;14.43;3.05;;;10.90;99.90;;;;;;4967372;28;20027;-89
2023/05/17 06:16:11;;;;;;;17.70;3.40;;;11.00;99.90;;;;;;4984659;28;20048;-90
2023/05/17 06:18:36;;;;;;;14.82;2.15;;;11.10;99.90;;;;;;4968478;28;20045;-91
2023/05/17 06:21:02;;;;;;;23.75;3.38;;;11.20;99.90;;;;;;4972547;28;20053;-91
2023/05/17 06:23:27;;;;;;;22.10;2.97;;;11.20;99.90;;;;;;4980692;28;20406;-90
2023/05/17 06:25:53;;;;;;;15.30;1.90;;;11.30;99.90;;;;;;4977337;28;20029;-90
2023/05/17 06:28:19;;;;;;;16.42;1.48;;;11.30;99.90;;;;;;4976139;28;20041;-91
2023/05/17 06:30:45;;;;;;;16.30;1.60;;;11.40;99.90;;;;;;4979693;28;20080;-91
2023/05/17 06:33:10;;;;;;;16.80;1.58;;;11.40;99.90;;;;;;4969122;28;20026;-91
2023/05/17 06:35:37;;;;;;;16.73;2.35;;;11.50;99.90;;;;;;4986092;28;20510;-91
2023/05/17 06:38:02;;;;;;;16.50;1.40;;;11.40;99.90;;;;;;4973856;28;20026;-91
2023/05/17 06:40:28;;;;;;;13.68;1.45;;;11.50;99.90;;;;;;4972822;28;20025;-91
2023/05/17 06:42:53;;;;;;;13.18;1.00;;;11.50;99.90;;;;;;4979964;28;20035;-90
2023/05/17 06:45:19;;;;;;;11.45;1.40;;;11.60;99.90;;;;;;4970157;28;20038;-91
2023/05/17 06:47:45;;;;;;;10.00;1.40;;;11.70;99.90;;;;;;4964579;28;20023;-90
2023/05/17 06:50:10;;;;;;;14.73;1.33;;;11.70;99.90;;;;;;4973535;28;20065;-91
2023/05/17 06:52:36;;;;;;;12.55;1.58;;;11.80;99.90;;;;;;4974679;28;20030;-90
2023/05/17 06:55:01;;;;;;;21.83;1.65;;;11.90;99.90;;;;;;4975074;28;20042;-89
2023/05/17 06:57:27;;;;;;;14.57;0.95;;;11.90;99.90;;;;;;4971884;28;20549;-90
2023/05/17 06:59:52;;;;;;;12.48;1.52;;;11.90;99.90;;;;;;4972843;28;20034;-89
2023/05/17 07:02:18;;;;;;;13.05;1.08;;;11.90;99.90;;;;;;4985138;28;20037;-90
2023/05/17 07:04:44;;;;;;;11.57;1.25;;;11.90;99.90;;;;;;4968379;28;20045;-89
2023/05/17 07:07:10;;;;;;;16.00;1.05;;;12.00;99.90;;;;;;4993574;28;20022;-89
2023/05/17 07:09:36;;;;;;;13.57;1.10;;;12.00;99.90;;;;;;4972464;28;20042;-89
2023/05/17 07:12:01;;;;;;;10.82;1.65;;;11.90;99.90;;;;;;4970600;28;20027;-90
2023/05/17 07:14:28;;;;;;;12.13;1.67;;;11.90;99.90;;;;;;4972411;28;20023;-90
2023/05/17 07:16:53;;;;;;;13.70;1.20;;;12.00;99.90;;;;;;4969479;28;20018;-90
2023/05/17 07:19:19;;;;;;;10.80;1.38;;;12.00;99.90;;;;;;4972544;28;20109;-90
2023/05/17 07:21:45;;;;;;;16.48;1.45;;;12.00;99.90;;;;;;4967820;28;20515;-91
2023/05/17 07:24:11;;;;;;;16.60;1.40;;;12.10;99.90;;;;;;4978504;28;20605;-90
2023/05/17 07:26:36;;;;;;;14.10;1.70;;;12.20;99.90;;;;;;4971833;28;20033;-90
2023/05/17 07:29:02;;;;;;;6.90;1.00;;;12.40;99.90;;;;;;4968785;28;21762;-90
2023/05/17 07:31:27;;;;;;;11.10;0.90;;;12.50;99.90;;;;;;4972368;28;20035;-90
2023/05/17 07:33:53;;;;;;;14.18;1.15;;;12.40;99.90;;;;;;4975358;28;20495;-89
2023/05/17 07:36:18;;;;;;;9.30;0.82;;;12.30;99.90;;;;;;4974284;28;20026;-90
2023/05/17 07:38:44;;;;;;;12.00;1.00;;;12.10;99.90;;;;;;4979153;28;20022;-90
2023/05/17 07:41:12;;;;;;;9.00;1.48;;;12.00;99.90;;;;;;4979637;28;20021;-91
2023/05/17 07:43:37;;;;;;;8.68;0.68;;;12.10;99.90;;;;;;4974341;28;20037;-89
2023/05/17 07:46:03;;;;;;;18.05;1.10;;;12.30;99.90;;;;;;4960359;28;20031;-90
2023/05/17 07:48:29;;;;;;;14.20;0.82;;;12.30;99.90;;;;;;4981691;28;20027;-90
2023/05/17 07:50:55;;;;;;;9.45;0.82;;;12.50;99.90;;;;;;4964254;28;20081;-91
2023/05/17 07:53:20;;;;;;;7.78;0.88;;;12.70;99.90;;;;;;4982142;28;20062;-91
2023/05/17 07:55:46;;;;;;;8.52;1.00;;;12.90;99.90;;;;;;4973984;28;20061;-91
2023/05/17 07:58:11;;;;;;;11.00;0.88;;;13.00;99.90;;;;;;4970766;28;20115;-90
2023/05/17 08:00:37;;;;;;;11.02;1.00;;;13.20;99.90;;;;;;4972260;28;20022;-91
2023/05/17 08:03:03;;;;;;;13.40;0.93;;;13.20;99.90;;;;;;4970119;28;20081;-91
2023/05/17 08:05:29;;;;;;;9.43;0.50;;;13.30;99.90;;;;;;4982994;28;20057;-91
2023/05/17 08:07:54;;;;;;;11.25;1.30;;;13.40;99.90;;;;;;4973644;28;20053;-91
2023/05/17 08:10:21;;;;;;;8.82;0.93;;;13.50;99.90;;;;;;4984294;28;20141;-91
2023/05/17 08:12:47;;;;;;;9.07;1.27;;;13.50;99.90;;;;;;4990592;28;20029;-91
2023/05/17 08:15:12;;;;;;;8.73;0.75;;;13.70;99.90;;;;;;4976806;28;20023;-91
2023/05/17 08:17:38;;;;;;;11.93;0.88;;;13.70;99.90;;;;;;4973978;28;20066;-91
2023/05/17 08:20:06;;;;;;;15.50;1.33;;;13.80;99.90;;;;;;4972426;28;20029;-91
2023/05/17 08:22:32;;;;;;;6.00;0.68;;;13.70;99.90;;;;;;4967866;28;20030;-90
2023/05/17 08:24:57;;;;;;;10.40;1.00;;;13.80;99.90;;;;;;4968504;28;20026;-90
2023/05/17 08:27:24;;;;;;;14.43;1.15;;;14.00;99.90;;;;;;4991184;28;20516;-90
2023/05/17 08:29:50;;;;;;;7.68;0.70;;;14.10;99.90;;;;;;4965648;28;20035;-90
2023/05/17 08:32:16;;;;;;;10.43;0.90;;;14.20;99.90;;;;;;4974284;28;20029;-90
2023/05/17 08:34:41;;;;;;;6.55;1.10;;;14.30;99.90;;;;;;4973095;28;20034;-90
2023/05/17 08:37:07;;;;;;;8.23;1.02;;;14.10;99.90;;;;;;4980660;28;20109;-90
2023/05/17 08:39:32;;;;;;;5.20;0.52;;;14.00;99.90;;;;;;4963403;28;20027;-90
2023/05/17 08:42:01;;;;;;;6.35;0.70;;;13.90;99.90;;;;;;4971800;28;20029;-90
2023/05/17 08:44:27;;;;;;;7.28;0.63;;;14.00;99.90;;;;;;4972650;28;20037;-89
2023/05/17 08:46:55;;;;;;;9.45;0.70;;;14.00;99.90;;;;;;4979249;28;20023;-90
2023/05/17 08:49:24;;;;;;;8.43;0.63;;;14.00;99.90;;;;;;4981548;28;20045;-89
2023/05/17 08:51:56;;;;;;;5.57;0.75;;;13.90;99.90;;;;;;4975586;28;20121;-90
2023/05/17 08:54:22;;;;;;;9.40;1.08;;;13.90;99.90;;;;;;4981738;28;20046;-90
2023/05/17 08:56:51;;;;;;;4.43;0.63;;;14.00;99.90;;;;;;4976238;28;20546;-89
2023/05/17 08:59:18;;;;;;;6.13;0.43;;;14.10;99.90;;;;;;4978649;28;20117;-90
2023/05/17 09:01:47;;;;;;;6.95;0.52;;;14.10;99.90;;;;;;4978321;28;20463;-90
2023/05/17 09:04:13;;;;;;;6.45;0.40;;;14.10;99.90;;;;;;4979328;28;20026;-89
2023/05/17 09:06:39;;;;;;;8.48;0.52;;;14.20;99.90;;;;;;4985671;28;20030;-89
2023/05/17 09:09:07;;;;;;;6.15;0.45;;;14.30;99.90;;;;;;4981161;28;20391;-89
2023/05/17 09:11:33;;;;;;;8.25;0.60;;;14.40;99.40;;;;;;4983115;28;20518;-90
2023/05/17 09:14:00;;;;;;;10.93;0.90;;;14.40;99.60;;;;;;4979318;28;20022;-90
2023/05/17 09:16:30;;;;;;;6.45;0.70;;;14.60;99.10;;;;;;4977552;28;20077;-91
2023/05/17 09:18:57;;;;;;;4.90;0.70;;;14.70;98.60;;;;;;4969106;28;20062;-90
2023/05/17 09:21:23;;;;;;;7.95;0.80;;;14.80;97.70;;;;;;4971573;28;20037;-90
2023/05/17 09:23:54;;;;;;;6.57;0.63;;;14.90;98.10;;;;;;4980380;28;20025;-96
2023/05/17 09:26:20;;;;;;;5.05;0.55;;;14.90;97.70;;;;;;4994362;28;20030;-90
2023/05/17 09:28:47;;;;;;;5.18;0.90;;;14.80;97.10;;;;;;4997902;28;20034;-90
2023/05/17 09:31:15;;;;;;;4.28;0.65;;;14.90;97.00;;;;;;4984781;28;20492;-90
2023/05/17 09:33:46;;;;;;;10.25;0.60;;;15.00;96.90;;;;;;4968223;28;20054;-91
2023/05/17 09:36:22;;;;;;;12.13;0.60;;;15.10;96.90;;;;;;4998337;28;20026;-90
2023/05/17 09:38:58;;;;;;;6.72;0.60;;;15.20;96.10;;;;;;4979810;28;20126;-93
2023/05/17 09:41:29;;;;;;;5.97;0.70;;;15.00;95.80;;;;;;4982918;28;20030;-90
2023/05/17 09:44:02;;;;;;;5.93;0.60;;;14.70;96.00;;;;;;4975294;28;20029;-90
2023/05/17 09:46:33;;;;;;;6.43;0.80;;;14.60;96.20;;;;;;4982215;28;20062;-90
2023/05/17 09:49:01;;;;;;;9.68;0.65;;;14.60;95.60;;;;;;4978876;28;20050;-90
2023/05/17 09:51:48;;;;;;;7.15;1.15;;;14.60;95.30;;;;;;4975670;28;20028;-90
2023/05/17 09:54:13;;;;;;;5.95;0.68;;;14.80;95.60;;;;;;4993848;28;20046;-90
2023/05/17 09:56:40;;;;;;;4.53;0.52;;;14.90;95.30;;;;;;4989480;28;20069;-90
2023/05/17 09:59:15;;;;;;;9.45;0.90;;;15.00;95.30;;;;;;4983597;28;20033;-90
2023/05/17 10:01:42;;;;;;;4.25;0.60;;;15.00;95.10;;;;;;4978552;28;20026;-91
2023/05/17 10:04:09;;;;;;;7.95;0.77;;;14.90;95.50;;;;;;4988937;28;20018;-90
2023/05/17 10:06:40;;;;;;;5.00;0.60;;;14.90;95.80;;;;;;4978418;28;20026;-90
2023/05/17 10:09:09;;;;;;;7.50;0.70;;;14.90;95.20;;;;;;4977473;28;20034;-90
2023/05/17 10:11:37;;;;;;;3.85;0.52;;;14.90;95.00;;;;;;4995719;28;20538;-90
2023/05/17 10:14:27;;;;;;;6.07;0.60;;;15.00;95.40;;;;;;4974286;28;20065;-90
2023/05/17 10:16:53;;;;;;;9.02;0.90;;;15.20;95.00;;;;;;4977196;28;20031;-90
2023/05/17 10:19:20;;;;;;;4.43;0.55;;;15.20;94.70;;;;;;4961562;28;20058;-90
2023/05/17 10:21:48;;;;;;;6.72;0.43;;;15.20;94.80;;;;;;4978580;28;20030;-90
2023/05/17 10:24:15;;;;;;;7.68;1.02;;;15.30;95.10;;;;;;4977054;28;20054;-90
2023/05/17 10:26:41;;;;;;;5.88;0.47;;;15.30;94.40;;;;;;4976865;28;20117;-89
2023/05/17 10:29:08;;;;;;;4.90;0.63;;;15.10;94.00;;;;;;4973121;28;20394;-89
2023/05/17 10:31:35;;;;;;;7.05;0.55;;;15.00;93.40;;;;;;4990839;28;20115;-89
2023/05/17 10:34:02;;;;;;;6.93;0.40;;;15.10;93.60;;;;;;5004390;28;21053;-90
2023/05/17 10:36:28;;;;;;;6.78;0.70;;;15.20;93.20;;;;;;5010559;28;20065;-90
2023/05/17 10:38:54;;;;;;;8.18;1.05;;;15.40;93.30;;;;;;5013340;28;20026;-89
2023/05/17 10:41:29;;;;;;;7.25;0.50;;;15.50;93.40;;;;;;4978251;28;20030;-89
2023/05/17 10:43:55;;;;;;;4.13;0.40;;;15.60;92.80;;;;;;4974410;28;20034;-90
2023/05/17 10:46:22;;;;;;;6.03;0.40;;;15.60;92.50;;;;;;4977726;28;20026;-90
2023/05/17 10:48:50;;;;;;;7.00;0.70;;;15.60;92.90;;;;;;4973383;28;20459;-91
2023/05/17 10:51:25;;;;;;;8.50;0.60;;;15.80;92.10;;;;;;4982975;28;20065;-89
2023/05/17 10:54:10;;;;;;;7.22;0.52;;;15.70;91.80;;;;;;4984718;28;20045;-89
2023/05/17 10:56:46;;;;;;;4.95;0.60;;;15.70;91.10;;;;;;4980089;28;20087;-90
2023/05/17 10:59:21;;;;;;;7.35;0.52;;;15.50;90.10;;;;;;4987113;28;20068;-89
2023/05/17 11:02:07;;;;;;;6.07;0.68;;;15.50;90.10;;;;;;4990638;28;20089;-89
2023/05/17 11:04:38;;;;;;;8.35;0.70;;;15.50;90.10;;;;;;4988485;28;20037;-89
2023/05/17 11:07:16;;;;;;;6.25;0.60;;;15.60;90.30;;;;;;4975737;28;20487;-90
2023/05/17 11:09:48;;;;;;;3.67;0.47;;;15.70;88.40;;;;;;4970204;28;20129;-90
2023/05/17 11:12:14;;;;;;;;;;;15.60;86.10;;;;;;4981303;28;20022;-90
2023/05/17 11:14:46;;;;;;;7.38;1.20;;;15.50;87.60;;;;;;4983752;28;19910;-90
2023/05/17 11:17:33;;;;;;;4.63;0.50;;;15.60;88.10;;;;;;4973686;28;20033;-89
2023/05/17 11:20:06;;;;;;;3.13;0.43;;;15.50;87.80;;;;;;4976378;28;20030;-89
2023/05/17 11:22:43;;;;;;;3.97;0.30;;;15.40;87.60;;;;;;4981825;28;20026;-90
2023/05/17 11:25:12;;;;;;;5.07;0.60;;;15.40;88.20;;;;;;4994071;28;20431;-90
2023/05/17 11:27:48;;;;;;;5.53;0.63;;;15.50;88.40;;;;;;4986596;28;20058;-89
2023/05/17 11:30:30;;;;;;;8.63;0.40;;;15.70;87.20;;;;;;4982642;28;20129;-90
2023/05/17 11:33:05;;;;;;;3.08;0.40;;;15.70;85.70;;;;;;4979787;28;20022;-89
2023/05/17 11:35:38;;;;;;;5.35;0.50;;;15.60;86.40;;;;;;4973900;28;20383;-89
2023/05/17 11:38:18;;;;;;;7.20;0.60;;;15.60;85.40;;;;;;4976045;28;20036;-89
2023/05/17 11:40:45;;;;;;;5.18;0.40;;;15.70;83.80;;;;;;4971616;28;20134;-89
2023/05/17 11:43:11;;;;;;;4.55;0.32;;;15.60;83.40;;;;;;4976500;28;20030;-89
2023/05/17 11:46:05;;;;;;;2.97;0.40;;;15.60;83.90;;;;;;4997726;28;20070;-89
2023/05/17 11:48:31;;;;;;;4.10;0.40;;;15.60;84.10;;;;;;4975670;28;20063;-89
2023/05/17 11:50:56;;;;;;;7.95;0.55;;;15.70;83.50;;;;;;4980251;28;20077;-89
2023/05/17 11:53:24;;;;;;;4.53;0.35;;;15.80;82.80;;;;;;4983908;28;20034;-90
2023/05/17 11:55:51;;;;;;;7.38;0.55;;;15.90;82.80;;;;;;4987250;28;20031;-89
2023/05/17 11:58:24;;;;;;;4.88;0.40;;;16.00;83.30;;;;;;4975575;28;20366;-89
2023/05/17 12:00:56;;;;;;;7.82;0.70;;;16.00;82.10;;;;;;4974728;28;20455;-89
2023/05/17 12:03:27;;;;;;;4.45;0.50;;;16.00;83.50;;;;;;4986605;28;20372;-90
2023/05/17 12:06:08;;;;;;;6.40;0.70;;;16.00;82.00;;;;;;4977038;28;20030;-90
2023/05/17 12:08:35;;;;;;;7.70;0.55;;;15.90;81.30;;;;;;4987003;28;20058;-90
2023/05/17 12:11:01;;;;;;;3.95;0.50;;;15.80;82.30;;;;;;4978379;28;20045;-89
2023/05/17 12:13:29;;;;;;;4.57;0.40;;;16.00;82.00;;;;;;4980275;28;20034;-90
2023/05/17 12:15:56;;;;;;;3.78;0.50;;;16.00;81.10;;;;;;4984969;28;20026;-90
2023/05/17 12:18:23;;;;;;;3.80;0.40;;;16.00;81.00;;;;;;4972826;28;20037;-90
2023/05/17 12:20:53;;;;;;;6.15;0.65;;;16.00;81.20;;;;;;4983809;28;20138;-89
2023/05/17 12:23:31;;;;;;;5.57;0.60;;;16.10;80.60;;;;;;4976040;28;20045;-90
2023/05/17 12:26:21;;;;;;;6.05;0.93;;;16.10;82.00;;;;;;4980933;28;20019;-89
2023/05/17 12:28:58;;;;;;;5.45;0.50;;;16.20;81.20;;;;;;5000406;28;20026;-90
2023/05/17 12:31:48;;;;;;;6.60;0.60;;;16.20;81.70;;;;;;4990310;28;20034;-90
2023/05/17 12:34:16;;;;;;;5.13;0.65;;;16.20;80.80;;;;;;4975250;28;20042;-90
2023/05/17 12:36:42;;;;;;;4.18;0.60;;;16.20;80.20;;;;;;5000822;28;20426;-90
2023/05/17 12:39:09;;;;;;;4.57;0.40;;;16.20;80.00;;;;;;4987961;28;20473;-90
2023/05/17 12:41:37;;;;;;;2.85;0.60;;;16.20;79.00;;;;;;4981146;28;20034;-90
2023/05/17 12:44:03;;;;;;;8.35;0.65;;;16.20;78.00;;;;;;4987490;28;20028;-90
2023/05/17 12:46:29;;;;;;;7.43;0.85;;;16.10;77.80;;;;;;4980191;28;20097;-90
2023/05/17 12:48:59;;;;;;;5.05;0.85;;;16.10;78.90;;;;;;4991352;28;20021;-90